Nearby METAR Reports

 

EGEO - Oban, United Kingdom
Distance from station: SSW 18mi, 30km
Updated: 29/11/2020 15:50
NOT Current
Light drizzle, Overcast
Light drizzle, Overcast
 Wind from ESE
Wind: ESE 7 mph , 11 km/h
Temperature: 6°C
Wind Chill: 4°C
Dew Point: 5°C
Humidity: 93%
Barometer: 1024 hPa
Summary: Light Drizzle
Clouds: Overcast
Visibility: 6 miles , 10 km
Cloud details: Overcast 335 m
2020/11/29 15:50 EGEO 291550Z 11006KT 9999 -DZ OVC011 06/05 Q1024
EGPU - Tiree, United Kingdom
Distance from station: WSW 64mi, 103km
Updated: 30/11/2020 04:50
Light rain, Mostly cloudy
Light rain, Mostly cloudy
 Wind from W
Wind: W 25 mph , 41 km/h
Temperature: 10°C
Wind Chill: 6°C
Dew Point: 9°C
Humidity: 94%
Barometer: 1015 hPa
Summary: Light rain
Clouds: Mostly cloudy
Visibility: 1 mile , 2 km
Cloud details: Mostly cloudy 152 m
Mostly cloudy 427 m
2020/11/30 04:50 EGPU 300450Z AUTO 26022KT 230V290 1800 -RA BKN005/// BKN014/// 10/09 Q1015
EGPF - Glasgow, United Kingdom
Distance from station: SSE 66mi, 107km
Updated: 30/11/2020 04:50
Light rain, Mostly cloudy
Light rain, Mostly cloudy
 Wind from SW
Wind: SW 20 mph , 31 km/h
Temperature: 8°C
Wind Chill: 3°C
Dew Point: 7°C
Humidity: 93%
Barometer: 1018 hPa
Summary: Light rain
Clouds: Mostly cloudy
Visibility: 6 miles , 10 km
Cloud details: Mostly cloudy 457 m
2020/11/30 04:50 EGPF 300450Z AUTO 23017KT 9999 -RA BKN015 08/07 Q1018
 
EGPE - Inverness, United Kingdom
Distance from station: NE 71mi, 114km
Updated: 30/11/2020 04:50
Partly cloudy
Partly cloudy
 Wind from SSW
Wind: SSW 15 mph , 24 km/h
Temperature: 9°C
Wind Chill: 6°C
Dew Point: 7°C
Humidity: 87%
Barometer: 1012 hPa
Clouds: Partly cloudy
Visibility: 6 miles , 10 km
Cloud details: Partly cloudy 1311 m
2020/11/30 04:50 EGPE 300450Z AUTO 21013KT 9999 SCT043/// 09/07 Q1012
EGPI - Islay/Port Ellen, United Kingdom
Distance from station: SSW 81mi, 131km
Updated: 30/11/2020 04:50
Mist, Mostly cloudy
Mist, Mostly cloudy
 Wind from SW
Wind: SW 23 mph , 37 km/h
Temperature: 10°C
Wind Chill: 6°C
Dew Point: 9°C
Humidity: 94%
Barometer: 1018 hPa
Summary: Mist
Clouds: Mostly cloudy
Visibility: 1 mile , 2 km
Cloud details: Mostly cloudy 274 m
Mostly cloudy 457 m
2020/11/30 04:50 EGPI 300450Z AUTO 23020KT 080V230 2200 BR BKN009/// BKN015/// 10/09 Q1018 RERA
EGPN - Dundee/Riverside, United Kingdom
Distance from station: E 86mi, 138km
Updated: 29/11/2020 20:20
NOT Current
Partly cloudy
Partly cloudy
 Wind from calm
Wind: Calm
Temperature: 3°C
Dew Point: 3°C
Humidity: 100%
Barometer: 1023 hPa
Clouds: Partly cloudy
Visibility: 6 miles , 9 km
Cloud details: Few Clouds 183 m
Partly cloudy 457 m
2020/11/29 20:20 EGPN 292020Z 00000KT 9000 FEW006 SCT015 03/03 Q1023
 
EGPK - Prestwick, United Kingdom
Distance from station: SSE 88mi, 141km
Updated: 30/11/2020 04:50
Light rain, Showers, Mostly cloudy
Light rain, Showers, Mostly cloudy
 Wind from WSW
Wind: WSW 17 mph , 28 km/h
Temperature: 9°C
Wind Chill: 6°C
Dew Point: 7°C
Humidity: 87%
Barometer: 1020 hPa
Summary: Light rain, Showers
Clouds: Mostly cloudy
Visibility: 6 miles , 9 km
Cloud details: Mostly cloudy 427 m
2020/11/30 04:50 EGPK 300450Z 24015KT 9000 -SHRA BKN014 09/07 Q1020
EGPH - Edinburgh, United Kingdom
Distance from station: SE 89mi, 143km
Updated: 30/11/2020 04:50
Mostly cloudy
Mostly cloudy
 Wind from WSW
Wind: WSW 16 mph , 26 km/h
Temperature: 8°C
Wind Chill: 4°C
Dew Point: 6°C
Humidity: 87%
Barometer: 1017 hPa
Clouds: Mostly cloudy
Visibility: 6 miles , 10 km
Cloud details: Partly cloudy 457 m
Mostly cloudy 701 m
2020/11/30 04:50 EGPH 300450Z 24014KT 9999 SCT015 BKN023 08/06 Q1017
EGQK - RAF Kinloss, United Kingdom
Distance from station: NE 90mi, 144km
Updated: 26/11/2020 15:50
NOT Current
Mostly cloudy
Mostly cloudy
 Wind from SSW
Wind: SSW 6 mph , 9 km/h
Temperature: 6°C
Wind Chill: 4°C
Dew Point: 3°C
Humidity: 81%
Barometer: 1017 hPa
Clouds: Mostly cloudy
Visibility: 6 miles , 10 km
Cloud details: Mostly cloudy 1036 m
2020/11/26 15:50 EGQK 261550Z AUTO 20005KT 9999 BKN034/// 06/03 Q1017
 
EGEC - Campbeltown, United Kingdom
Distance from station: S 90mi, 145km
Updated: 29/11/2020 16:50
NOT Current
Mostly cloudy
Mostly cloudy
 Wind from W
Wind: W 9 mph , 15 km/h
Temperature: 10°C
Wind Chill: 8°C
Dew Point: 9°C
Humidity: 94%
Barometer: 1024 hPa
Clouds: Mostly cloudy
Visibility: 4 miles , 7 km
Cloud details: Mostly cloudy 274 m
Partly cloudy 457 m
Mostly cloudy 1067 m
2020/11/29 16:50 EGEC 291650Z 27008KT 7000 BKN009 SCT015 BKN035 10/09 Q1024
EGQA - Tain Range, United Kingdom
Distance from station: NNE 91mi, 146km
Updated: 27/11/2020 10:50
NOT Current
Light rain, Drizzle, Mostly cloudy
Light rain, Drizzle, Mostly cloudy
 Wind from calm
Wind: Calm
Summary: Light rain, Drizzle
Clouds: Mostly cloudy
Visibility: 6 miles , 10 km
Cloud details: Mostly cloudy 610 m
2020/11/27 10:50 EGQA 271050Z 00000KT 9999 7000SW -RADZ BKN020 07/// Q1018 RMK WHT
EGQL - RAF Leuchars, United Kingdom
Distance from station: ESE 93mi, 149km
Updated: 30/11/2020 04:50
Mostly cloudy
Mostly cloudy
 Wind from WSW
Wind: WSW 20 mph , 31 km/h
Temperature: 8°C
Wind Chill: 3°C
Dew Point: 6°C
Humidity: 87%
Barometer: 1015 hPa
Clouds: Mostly cloudy
Visibility: 6 miles , 10 km
Cloud details: Partly cloudy 366 m
Mostly cloudy 3658 m
2020/11/30 04:50 EGQL 300450Z 24017KT 9999 SCT012 BKN120 08/06 Q1015 RMK GRN
 
EGPL - Benbecula, United Kingdom
Distance from station: WNW 96mi, 154km
Updated: 30/11/2020 04:50
Light rain, Overcast
Light rain, Overcast
 Wind from WSW
Wind: WSW 28 mph , 44 km/h
Temperature: 10°C
Wind Chill: 6°C
Dew Point: 9°C
Humidity: 94%
Barometer: 1012 hPa
Summary: Light rain
Clouds: Overcast
Visibility: 4 miles , 6 km
Cloud details: Overcast 122 m
2020/11/30 04:50 EGPL 300450Z AUTO 25024KT 6000 -RA OVC004/// 10/09 Q1012 RERA
EGQS - RAF Lossiemouth, United Kingdom
Distance from station: NE 99mi, 160km
Updated: 30/11/2020 04:50
Clear
Clear
 Wind from SW
Wind: SW 8 mph , 13 km/h
Temperature: 8°C
Wind Chill: 6°C
Dew Point: 6°C
Humidity: 87%
Barometer: 1012 hPa
Summary: Clear
Visibility: greater than 7 miles , 10 km
2020/11/30 04:50 EGQS 300450Z 23007KT CAVOK 08/06 Q1012 RMK BLU
EGPO - Stornoway, United Kingdom
Distance from station: NNW 111mi, 179km
Updated: 29/11/2020 16:50
NOT Current
Mostly cloudy
Mostly cloudy
 Wind from SW
Wind: SW 15 mph , 24 km/h
Temperature: 9°C
Wind Chill: 6°C
Dew Point: 6°C
Humidity: 82%
Barometer: 1019 hPa
Clouds: Mostly cloudy
Visibility: 6 miles , 10 km
Cloud details: Few Clouds 366 m
Partly cloudy 914 m
Mostly cloudy 1372 m
2020/11/29 16:50 EGPO 291650Z 22013KT 9999 FEW012 SCT030 BKN045 09/06 Q1019
 
EGPD - Aberdeen/Dyce, United Kingdom
Distance from station: ENE 118mi, 190km
Updated: 30/11/2020 04:50
Light rain, Clear
Light rain, Clear
 Wind from SSW
Wind: SSW 9 mph , 15 km/h
Temperature: 7°C
Wind Chill: 4°C
Dew Point: 5°C
Humidity: 87%
Barometer: 1013 hPa
Summary: Light rain
Clouds: Clear
Visibility: 6 miles , 10 km
2020/11/30 04:50 EGPD 300450Z AUTO 21008KT 9999 -RA NCD 07/05 Q1013 NOSIG
EGAE - Eglinton/Londond, United Kingdom
Distance from station: SSW 138mi, 222km
Updated: 29/11/2020 18:20
NOT Current
Partly cloudy
Partly cloudy
 Wind from SW
Wind: SW 12 mph , 19 km/h
Temperature: 9°C
Wind Chill: 6°C
Dew Point: 8°C
Humidity: 94%
Barometer: 1025 hPa
Clouds: Partly cloudy
Visibility: 5 miles , 8 km
Cloud details: Few Clouds 457 m
Partly cloudy 975 m
2020/11/29 18:20 EGAE 291820Z 22010KT 8000 FEW015 SCT032 09/08 Q1025
EGPC - Wick, United Kingdom
Distance from station: NNE 144mi, 232km
Updated: 30/11/2020 04:50
Light rain, Mostly cloudy
Light rain, Mostly cloudy
 Wind from SW
Wind: SW 7 mph , 11 km/h
Temperature: 8°C
Wind Chill: 6°C
Dew Point: 7°C
Humidity: 93%
Barometer: 1010 hPa
Summary: Light rain
Clouds: Mostly cloudy
Visibility: 6 miles , 10 km
Cloud details: Few Clouds 792 m
Partly cloudy 945 m
Mostly cloudy 1280 m
2020/11/30 04:50 EGPC 300450Z AUTO 22006KT 180V240 9999 -RA FEW026/// SCT031/// BKN042/// 08/07 Q1010

Metar display script from Saratoga-Weather.org